Logo AVAMET
Benvolgut visitant, si us plau, ingressa Recuperar contrasenya

Pedreguer Ocaive

Dades diàries. Acumulats / Últims 30 dies disponibles

Data Temperatura (°C) Humitat rel. (%) Pressió rel. (hPa) Vent (km/h) Precipitació
Mínima Mitjana Màxima Amplitud
tèrmica
Mínima Mitjana Màxima Mínima Mitjana Màxima Predom. Mitjana Ràfega
màxima
Total
(mm)
Índex-n
Mínima Mitjana Màxima Mínima Mitjana Màxima n
0 a 1
P0 max
mm 5'
Dades mensuals acumulades fins l'últim dia disponible
09/2019 14,0 19,0 22,3 22,7 22,3 26,2 33,9 19,9 34 81 97 1.008 1.018 1.025   5,3 67,6 129,0
Dades anuals acumulades fins l'últim dia disponible
2019 1,2 13,4 26,6 18,5 10,6 23,4 39,4 38,2 16 67 99 994 1.017 1.036   5,1 74,0 591,6
Últims 30 dies disponibles
16-09-2019 19,4     23,1     25,2 5,8 82 92 97 1.017 1.018 1.019 ESE 3,1 29,0 0,0
15-09-2019 22,3     23,0     23,9 1,6 94 96 97 1.018 1.019 1.022 ENE 2,7 24,1 0,2
14-09-2019 18,7     21,5     22,9 4,2 81 90 96 1.020 1.022 1.025 W 2,9 29,0 7,8 0,74 6,00
13-09-2019 17,8     21,3     24,1 6,3 85 90 94 1.020 1.023 1.025 NE 5,5 35,4 4,8 0,68 0,80
12-09-2019 17,6     19,8     22,5 4,9 77 93 97 1.019 1.020 1.021 E 17,9 67,6 72,8 0,68 29,30
11-09-2019 14,0     18,4     22,3 8,3 61 79 97 1.012 1.016 1.022 NE 8,4 49,9 29,2 0,70 6,80
10-09-2019 15,8     22,4     27,7 11,9 34 57 91 1.008 1.010 1.013 SW 6,9 32,2 6,4 0,62 3,70
09-09-2019 17,2     24,4     29,6 12,4 44 65 90 1.011 1.014 1.017 SSW 8,2 38,6 0,0
07-09-2019 18,9     21,7     25,4 6,5 68 84 94 1.018 1.019 1.020 S 1,8 22,5 2,8
06-09-2019 18,7     21,9     25,0 6,3 73 86 95 1.017 1.019 1.020 SW 3,4 24,1 1,4
05-09-2019 20,6     23,4     26,5 5,9 64 81 94 1.015 1.017 1.018 NE 3,5 24,1 0,0
04-09-2019 21,7     25,2     29,3 7,6 59 79 93 1.015 1.018 1.020 SSW 3,4 29,0 0,0
03-09-2019 20,3     24,3     28,7 8,4 63 82 94 1.018 1.020 1.021 SE 4,8 35,4 0,0
02-09-2019 21,4     23,7     26,1 4,7 74 87 95 1.014 1.017 1.020 SW 2,9 29,0 3,6 0,34 0,40
01-09-2019 19,9     26,9     33,9 14,0 36 62 85 1.011 1.013 1.014 SW 3,9 29,0 0,0
31-08-2019 19,8     26,7     32,6 12,8 41 61 84 1.013 1.015 1.017 S 3,5 20,9 0,0
30-08-2019 19,6     25,3     31,2 11,6 47 67 84 1.017 1.019 1.020 SW 3,2 25,7 0,0
29-08-2019 19,7     25,2     30,9 11,2 49 74 94 1.018 1.018 1.020 SW 4,5 30,6 0,0
28-08-2019 18,1     23,5     29,3 11,2 52 79 95 1.016 1.017 1.018 SW 2,9 20,9 0,2
27-08-2019 18,8     22,6     26,2 7,4 70 82 95 1.013 1.015 1.017 SW 4,5 51,5 10,0
26-08-2019 20,8     24,2     27,3 6,5 69 84 95 1.013 1.015 1.017 NE 3,9 24,1 0,0
25-08-2019 20,4     24,3     29,5 9,1 54 79 93 1.016 1.017 1.018 SW 4,8 27,4 0,0
24-08-2019 20,0     24,1     28,9 8,9 58 78 93 1.017 1.018 1.019 SW 4,5 22,5 0,0
23-08-2019 19,9     24,0     29,4 9,5 43 73 94 1.018 1.019 1.020 SW 4,0 22,5 0,0
22-08-2019 19,2     23,7     28,4 9,2 45 76 92 1.018 1.019 1.021 SW 4,7 22,5 0,0
21-08-2019 20,7     24,0     27,3 6,6 54 80 98 1.018 1.019 1.020 NE 4,5 41,8 85,6
20-08-2019 22,3     25,2     29,2 6,9 69 84 96 1.014 1.016 1.019 NE 7,4 40,2 13,0
19-08-2019 22,2     26,6     32,2 10,0 29 76 89 1.011 1.013 1.015 NE 4,7 24,1 0,0
18-08-2019 21,2     28,5     35,0 13,8 23 66 93 1.009 1.011 1.013 SW 6,1 35,4 0,0
17-08-2019 19,7     26,8     33,0 13,3 42 65 83 1.011 1.014 1.016 SE 5,5 37,0 0,0
Últims 13 mesos disponibles
08/2019 18,1 21,2 26,6 26,2 26,2 31,2 38,4 20,3 44 71 84 1.009 1.015 1.019 SW 5,0 51,5 109,0
07/2019 19,4 21,3 26,5 26,7 28,0 31,9 39,4 20,0 41 64 80 1.005 1.013 1.020 SW 5,8 74,0 0,4
06/2019 12,1 16,5 22,0 22,4 21,3 27,4 36,2 24,1 39 63 83 1.008 1.015 1.021 NE 5,5 45,1 1,0
05/2019 8,2 12,9 21,4 18,3 18,8 23,0 29,9 21,7 52 69 84 1.005 1.015 1.024 SW 5,2 59,5 11,4
04/2019 7,4 10,4 13,1 14,6 13,9 18,7 27,8 20,4 38 72 97 1.002 1.013 1.019 SW 5,8 56,3 199,2
03/2019 6,1 8,7 14,6 14,0 12,8 19,1 27,7 21,6 37 62 93 1.010 1.023 1.030 SW 4,6 57,9 58,0
02/2019 2,8 6,8 11,4 11,2 12,1 15,7 23,3 20,5 35 66 87 996 1.024 1.034 SW 4,7 64,4 0,0
01/2019 1,2 6,6 14,1 10,8 10,6 15,9 20,9 19,7 38 64 90 1.003 1.020 1.031 SW 4,6 59,5 6,4
12/2018 4,8 8,2 11,6 12,6 12,1 18,5 23,9 19,1 49 74 95 1.009 1.025 1.031 SW 2,7 53,1 36,6
11/2018 6,4 11,3 16,2 14,7 13,9 18,6 24,2 17,8 48 73 95 1.001 1.015 1.023 SW 3,7 69,2 133,8
10/2018 8,8 14,6 18,9 18,4 14,4 22,8 27,7 18,9 40 74 92 1.000 1.014 1.025 4,0 62,8 94,6
09/2018 15,1 20,2 22,7 23,7 24,3 27,8 32,4 17,3 4,0 48,3 67,8
08/2018 18,5 22,0 25,9 26,8 25,9 31,3 36,4 17,9 5,3 48,3 39,6
Tots els anys disponibles
2018 0,7 13,7 25,9 18,2 7,8 22,8 36,4 35,7 40 74 95 1.000 1.019 1.031 SW 5,0 72,4 601,8
2017 0,6 13,3 26,7 18,1 8,1 22,9 37,1 36,5 4,9 77,2 633,0
2016 1,3 13,8 24,5 18,3 7,8 22,8 39,1 37,8 5,5 70,8 446,8
2015 0,8 14,4 25,3 18,9 8,3 23,6 40,7 39,9 5,1 99,8 490,0
Temperatura (°C)
Humitat relativa (%)
Velocitat del vent i ràfega màxima (km/h)
Direcció del vent (°)
Pressió (hPa)
Precipitació (mm)
Nota sobre les dades: s'avisa a l'usuari de la provisionalitat i no oficialitat d'aquestes dades
Logo AVAMET blanc
Web allotjada a Sollutia
Llicència de Creative CommonsLa web d'AVAMET i els seus continguts estan subjectes a una llicència de
Reconeixement - No Comercial - Compartir igual
Properes estacions: Altea - Club Nàutic d'Altea (Soci),    - - - - -      Últimes estacions: Llíria - Bodegas del Campo (Soci), La Pobla Tornesa (Soci), Quartell (Soci), Alzira - Est (Soci/Inforatge), San Miguel de las Salinas (MeteOrihuela), Segorbe (Inforatge), Alcalà de Xivert - Alcossebre (Inforatge), Moixent - la Foia (Soci), Callosa d'en Sarrià - Centre (Soci) - - -